McNair Village, Texas
Current Conditions -  °F | °C
As of 10:56 AM on Wednesday 26 Nov 2014 (Local Time) from KHLR Reporting Station
Clear Clear  
Wind Chill: 66°   Ceiling: Unl
Heat Index: 66°   Visibility: 10mi
Dew Point: 26°   Wind: 14mph
Humidity: 22%   Direction: 250°WSW
Pressure: 30.17"   Gusts: 23mph
Location:  31.2151°N, 97.7405°W
Report Text: KHLR 261656Z AUTO 25012G20KT 10SM CLR 19/M03 A3017 RMK AO2 SLP248 T01891033 $
Loading
Personal Weather Stations






























Interactive Weather Map New forecast layout! Learn more

10-Day Weather Forecast

Advertisements
Track Severe Weather on mobile